sensor_id;sensor_type;location;lat;lon;timestamp;temperature;humidity
324;DHT22;149;51.094;17.002;2023-04-03T00:01:03;1.50;99.90
324;DHT22;149;51.094;17.002;2023-04-03T00:03:30;1.40;99.90
324;DHT22;149;51.094;17.002;2023-04-03T00:05:57;1.40;99.90
324;DHT22;149;51.094;17.002;2023-04-03T00:08:24;1.40;99.90
324;DHT22;149;51.094;17.002;2023-04-03T00:10:51;1.40;99.90
324;DHT22;149;51.094;17.002;2023-04-03T00:13:18;1.30;99.90
324;DHT22;149;51.094;17.002;2023-04-03T00:15:45;1.30;99.90
324;DHT22;149;51.094;17.002;2023-04-03T00:18:12;1.30;99.90
324;DHT22;149;51.094;17.002;2023-04-03T00:20:39;1.20;99.90
324;DHT22;149;51.094;17.002;2023-04-03T00:23:06;1.10;99.90
324;DHT22;149;51.094;17.002;2023-04-03T00:25:33;1.20;99.90
324;DHT22;149;51.094;17.002;2023-04-03T00:28:00;1.10;99.90
324;DHT22;149;51.094;17.002;2023-04-03T00:30:27;1.20;99.90
324;DHT22;149;51.094;17.002;2023-04-03T00:32:54;1.10;99.90
324;DHT22;149;51.094;17.002;2023-04-03T00:35:22;1.10;99.90
324;DHT22;149;51.094;17.002;2023-04-03T00:37:54;1.10;99.90
324;DHT22;149;51.094;17.002;2023-04-03T00:40:24;1.00;99.90
324;DHT22;149;51.094;17.002;2023-04-03T00:42:56;1.10;99.90
324;DHT22;149;51.094;17.002;2023-04-03T00:45:27;1.10;99.90
324;DHT22;149;51.094;17.002;2023-04-03T00:47:56;1.10;99.90
324;DHT22;149;51.094;17.002;2023-04-03T00:50:23;1.00;99.90
324;DHT22;149;51.094;17.002;2023-04-03T00:52:50;0.90;99.90
324;DHT22;149;51.094;17.002;2023-04-03T00:55:18;0.90;99.90
324;DHT22;149;51.094;17.002;2023-04-03T00:57:45;0.80;99.90
324;DHT22;149;51.094;17.002;2023-04-03T01:00:15;0.80;99.90
324;DHT22;149;51.094;17.002;2023-04-03T01:02:43;0.90;99.90
324;DHT22;149;51.094;17.002;2023-04-03T01:05:12;0.80;99.90
324;DHT22;149;51.094;17.002;2023-04-03T01:07:39;0.80;99.90
324;DHT22;149;51.094;17.002;2023-04-03T01:10:10;0.80;99.90
324;DHT22;149;51.094;17.002;2023-04-03T01:12:39;0.80;99.90
324;DHT22;149;51.094;17.002;2023-04-03T01:15:15;0.80;99.90
324;DHT22;149;51.094;17.002;2023-04-03T01:20:35;0.80;99.90
324;DHT22;149;51.094;17.002;2023-04-03T01:23:13;0.80;99.90
324;DHT22;149;51.094;17.002;2023-04-03T01:25:52;0.90;99.90
324;DHT22;149;51.094;17.002;2023-04-03T01:28:31;0.90;99.90
324;DHT22;149;51.094;17.002;2023-04-03T01:31:28;0.90;99.90
324;DHT22;149;51.094;17.002;2023-04-03T01:33:56;0.90;99.90
324;DHT22;149;51.094;17.002;2023-04-03T01:36:26;0.90;99.90
324;DHT22;149;51.094;17.002;2023-04-03T01:38:54;0.90;99.90
324;DHT22;149;51.094;17.002;2023-04-03T01:41:21;1.00;99.90
324;DHT22;149;51.094;17.002;2023-04-03T01:43:49;1.00;99.90
324;DHT22;149;51.094;17.002;2023-04-03T01:46:16;0.90;99.90
324;DHT22;149;51.094;17.002;2023-04-03T01:48:44;0.90;99.90
324;DHT22;149;51.094;17.002;2023-04-03T01:51:11;0.90;99.90
324;DHT22;149;51.094;17.002;2023-04-03T01:53:38;0.90;99.90
324;DHT22;149;51.094;17.002;2023-04-03T01:56:05;0.80;99.90
324;DHT22;149;51.094;17.002;2023-04-03T01:58:32;0.80;99.90
324;DHT22;149;51.094;17.002;2023-04-03T02:00:59;0.80;99.90
324;DHT22;149;51.094;17.002;2023-04-03T02:03:26;0.70;99.90
324;DHT22;149;51.094;17.002;2023-04-03T02:05:53;0.70;99.90
324;DHT22;149;51.094;17.002;2023-04-03T02:08:19;0.70;99.90
324;DHT22;149;51.094;17.002;2023-04-03T02:10:48;0.70;99.90
324;DHT22;149;51.094;17.002;2023-04-03T02:13:15;0.70;99.90
324;DHT22;149;51.094;17.002;2023-04-03T02:15:43;0.60;99.90
324;DHT22;149;51.094;17.002;2023-04-03T02:18:09;0.60;99.90
324;DHT22;149;51.094;17.002;2023-04-03T02:20:37;0.60;99.90
324;DHT22;149;51.094;17.002;2023-04-03T02:23:05;0.50;99.90
324;DHT22;149;51.094;17.002;2023-04-03T02:25:32;0.50;99.90
324;DHT22;149;51.094;17.002;2023-04-03T02:28:04;0.40;99.90
324;DHT22;149;51.094;17.002;2023-04-03T02:30:31;0.40;99.90
324;DHT22;149;51.094;17.002;2023-04-03T02:32:58;0.30;99.90
324;DHT22;149;51.094;17.002;2023-04-03T02:35:25;0.30;99.90
324;DHT22;149;51.094;17.002;2023-04-03T02:37:52;0.30;99.90
324;DHT22;149;51.094;17.002;2023-04-03T02:40:19;0.30;99.90
324;DHT22;149;51.094;17.002;2023-04-03T02:42:45;0.30;99.90
324;DHT22;149;51.094;17.002;2023-04-03T02:45:12;0.20;99.90
324;DHT22;149;51.094;17.002;2023-04-03T02:47:39;0.20;99.90
324;DHT22;149;51.094;17.002;2023-04-03T02:50:06;0.10;99.90
324;DHT22;149;51.094;17.002;2023-04-03T02:52:33;0.20;99.90
324;DHT22;149;51.094;17.002;2023-04-03T02:55:00;0.10;99.90
324;DHT22;149;51.094;17.002;2023-04-03T02:57:27;0.20;99.90
324;DHT22;149;51.094;17.002;2023-04-03T02:59:55;0.20;99.90
324;DHT22;149;51.094;17.002;2023-04-03T03:02:22;0.20;99.90
324;DHT22;149;51.094;17.002;2023-04-03T03:04:48;0.20;99.90
324;DHT22;149;51.094;17.002;2023-04-03T03:07:16;0.30;99.90
324;DHT22;149;51.094;17.002;2023-04-03T03:09:42;0.30;99.90
324;DHT22;149;51.094;17.002;2023-04-03T03:12:09;0.30;99.90
324;DHT22;149;51.094;17.002;2023-04-03T03:14:36;0.20;99.90
324;DHT22;149;51.094;17.002;2023-04-03T03:17:03;0.20;99.90
324;DHT22;149;51.094;17.002;2023-04-03T03:19:30;0.30;99.90
324;DHT22;149;51.094;17.002;2023-04-03T03:21:56;0.30;99.90
324;DHT22;149;51.094;17.002;2023-04-03T03:24:23;0.20;99.90
324;DHT22;149;51.094;17.002;2023-04-03T03:26:50;0.20;99.90
324;DHT22;149;51.094;17.002;2023-04-03T03:29:18;0.20;99.90
324;DHT22;149;51.094;17.002;2023-04-03T03:31:45;0.10;99.90
324;DHT22;149;51.094;17.002;2023-04-03T03:34:12;0.10;99.90
324;DHT22;149;51.094;17.002;2023-04-03T03:36:40;0.20;99.90
324;DHT22;149;51.094;17.002;2023-04-03T03:39:07;0.00;99.90
324;DHT22;149;51.094;17.002;2023-04-03T03:41:34;-0.10;99.90
324;DHT22;149;51.094;17.002;2023-04-03T03:44:01;-0.10;99.90
324;DHT22;149;51.094;17.002;2023-04-03T03:46:28;-0.20;99.90
324;DHT22;149;51.094;17.002;2023-04-03T03:48:55;-0.10;99.90
324;DHT22;149;51.094;17.002;2023-04-03T03:51:22;-0.20;99.90
324;DHT22;149;51.094;17.002;2023-04-03T03:53:49;-0.20;99.90
324;DHT22;149;51.094;17.002;2023-04-03T03:56:16;-0.30;99.90
324;DHT22;149;51.094;17.002;2023-04-03T03:58:43;-0.30;99.90
324;DHT22;149;51.094;17.002;2023-04-03T04:01:10;-0.30;99.90
324;DHT22;149;51.094;17.002;2023-04-03T04:03:37;-0.30;99.90
324;DHT22;149;51.094;17.002;2023-04-03T04:06:04;-0.30;99.90
324;DHT22;149;51.094;17.002;2023-04-03T04:08:31;-0.30;99.90
324;DHT22;149;51.094;17.002;2023-04-03T04:10:57;-0.30;99.90
324;DHT22;149;51.094;17.002;2023-04-03T04:13:25;-0.40;99.90
324;DHT22;149;51.094;17.002;2023-04-03T04:15:51;-0.30;99.90
324;DHT22;149;51.094;17.002;2023-04-03T04:18:18;-0.30;99.90
324;DHT22;149;51.094;17.002;2023-04-03T04:20:48;-0.40;99.90
324;DHT22;149;51.094;17.002;2023-04-03T04:23:16;-0.40;99.90
324;DHT22;149;51.094;17.002;2023-04-03T04:25:47;-0.40;99.90
324;DHT22;149;51.094;17.002;2023-04-03T04:28:15;-0.40;99.90
324;DHT22;149;51.094;17.002;2023-04-03T04:30:42;-0.50;99.90
324;DHT22;149;51.094;17.002;2023-04-03T04:33:09;-0.40;99.90
324;DHT22;149;51.094;17.002;2023-04-03T04:35:37;-0.50;99.90
324;DHT22;149;51.094;17.002;2023-04-03T04:38:06;-0.50;99.90
324;DHT22;149;51.094;17.002;2023-04-03T04:40:35;-0.60;99.90
324;DHT22;149;51.094;17.002;2023-04-03T04:43:05;-0.50;99.90
324;DHT22;149;51.094;17.002;2023-04-03T04:45:35;-0.30;99.90
324;DHT22;149;51.094;17.002;2023-04-03T04:48:04;-0.50;99.90
324;DHT22;149;51.094;17.002;2023-04-03T04:50:32;-0.40;99.90
324;DHT22;149;51.094;17.002;2023-04-03T04:53:00;-0.30;99.90
324;DHT22;149;51.094;17.002;2023-04-03T04:55:30;-0.30;99.90
324;DHT22;149;51.094;17.002;2023-04-03T04:57:58;-0.20;99.90
324;DHT22;149;51.094;17.002;2023-04-03T05:00:25;-0.20;99.90
324;DHT22;149;51.094;17.002;2023-04-03T05:02:52;0.00;99.90
324;DHT22;149;51.094;17.002;2023-04-03T05:05:19;0.00;99.90
324;DHT22;149;51.094;17.002;2023-04-03T05:07:47;0.10;99.90
324;DHT22;149;51.094;17.002;2023-04-03T05:10:14;0.30;99.90
324;DHT22;149;51.094;17.002;2023-04-03T05:12:41;0.30;99.90
324;DHT22;149;51.094;17.002;2023-04-03T05:15:08;0.40;99.90
324;DHT22;149;51.094;17.002;2023-04-03T05:17:35;0.50;99.90
324;DHT22;149;51.094;17.002;2023-04-03T05:20:04;0.60;99.90
324;DHT22;149;51.094;17.002;2023-04-03T05:22:31;0.60;99.90
324;DHT22;149;51.094;17.002;2023-04-03T05:24:58;0.70;99.90
324;DHT22;149;51.094;17.002;2023-04-03T05:27:25;0.80;99.90
324;DHT22;149;51.094;17.002;2023-04-03T05:29:55;0.80;99.90
324;DHT22;149;51.094;17.002;2023-04-03T05:32:22;1.10;99.90
324;DHT22;149;51.094;17.002;2023-04-03T05:34:49;1.10;99.90
324;DHT22;149;51.094;17.002;2023-04-03T05:37:16;1.10;99.90
324;DHT22;149;51.094;17.002;2023-04-03T05:39:43;1.30;99.90
324;DHT22;149;51.094;17.002;2023-04-03T05:42:10;1.30;99.90
324;DHT22;149;51.094;17.002;2023-04-03T05:44:38;1.40;99.90
324;DHT22;149;51.094;17.002;2023-04-03T05:47:05;1.60;99.90
324;DHT22;149;51.094;17.002;2023-04-03T05:49:32;1.70;99.90
324;DHT22;149;51.094;17.002;2023-04-03T05:51:58;1.90;99.90
324;DHT22;149;51.094;17.002;2023-04-03T05:54:28;1.90;99.90
324;DHT22;149;51.094;17.002;2023-04-03T05:56:55;2.10;99.90
324;DHT22;149;51.094;17.002;2023-04-03T05:59:22;1.80;99.90
324;DHT22;149;51.094;17.002;2023-04-03T06:01:49;1.90;99.90
324;DHT22;149;51.094;17.002;2023-04-03T06:04:16;2.70;99.90
324;DHT22;149;51.094;17.002;2023-04-03T06:06:51;2.60;99.90
324;DHT22;149;51.094;17.002;2023-04-03T06:09:22;2.60;99.90
324;DHT22;149;51.094;17.002;2023-04-03T06:11:49;2.90;99.90
324;DHT22;149;51.094;17.002;2023-04-03T06:14:16;3.40;99.90
324;DHT22;149;51.094;17.002;2023-04-03T06:16:43;3.60;99.90
324;DHT22;149;51.094;17.002;2023-04-03T06:19:12;3.40;99.90
324;DHT22;149;51.094;17.002;2023-04-03T06:21:39;3.10;99.90
324;DHT22;149;51.094;17.002;2023-04-03T06:24:06;3.20;99.90
324;DHT22;149;51.094;17.002;2023-04-03T06:26:34;3.40;99.90
324;DHT22;149;51.094;17.002;2023-04-03T06:29:01;3.80;99.90
324;DHT22;149;51.094;17.002;2023-04-03T06:31:29;4.20;99.90
324;DHT22;149;51.094;17.002;2023-04-03T06:33:56;4.10;99.90
324;DHT22;149;51.094;17.002;2023-04-03T06:36:23;3.90;99.90
324;DHT22;149;51.094;17.002;2023-04-03T06:38:51;4.00;99.90
324;DHT22;149;51.094;17.002;2023-04-03T06:41:18;4.40;99.90
324;DHT22;149;51.094;17.002;2023-04-03T06:43:45;4.60;99.90
324;DHT22;149;51.094;17.002;2023-04-03T06:46:18;4.30;99.90
324;DHT22;149;51.094;17.002;2023-04-03T06:48:45;5.00;99.90
324;DHT22;149;51.094;17.002;2023-04-03T06:51:27;4.60;99.90
324;DHT22;149;51.094;17.002;2023-04-03T06:53:56;4.00;99.90
324;DHT22;149;51.094;17.002;2023-04-03T06:56:25;4.10;99.90
324;DHT22;149;51.094;17.002;2023-04-03T06:58:53;3.60;99.90
324;DHT22;149;51.094;17.002;2023-04-03T07:01:26;4.30;99.90
324;DHT22;149;51.094;17.002;2023-04-03T07:03:54;5.40;99.90
324;DHT22;149;51.094;17.002;2023-04-03T07:06:22;5.40;99.90
324;DHT22;149;51.094;17.002;2023-04-03T07:08:49;4.90;99.90
324;DHT22;149;51.094;17.002;2023-04-03T07:11:16;4.50;99.90
324;DHT22;149;51.094;17.002;2023-04-03T07:13:44;4.30;99.90
324;DHT22;149;51.094;17.002;2023-04-03T07:16:11;5.20;99.90
324;DHT22;149;51.094;17.002;2023-04-03T07:18:38;5.40;99.90
324;DHT22;149;51.094;17.002;2023-04-03T07:21:05;5.50;99.90
324;DHT22;149;51.094;17.002;2023-04-03T07:23:32;5.20;99.90
324;DHT22;149;51.094;17.002;2023-04-03T07:25:59;5.40;99.90
324;DHT22;149;51.094;17.002;2023-04-03T07:28:27;5.80;99.90
324;DHT22;149;51.094;17.002;2023-04-03T07:31:03;6.30;99.90
324;DHT22;149;51.094;17.002;2023-04-03T07:33:32;7.20;99.90
324;DHT22;149;51.094;17.002;2023-04-03T07:35:59;8.00;99.90
324;DHT22;149;51.094;17.002;2023-04-03T07:38:27;8.80;99.90
324;DHT22;149;51.094;17.002;2023-04-03T07:40:54;8.80;99.90
324;DHT22;149;51.094;17.002;2023-04-03T07:43:22;8.10;99.90
324;DHT22;149;51.094;17.002;2023-04-03T07:45:51;7.20;99.90
324;DHT22;149;51.094;17.002;2023-04-03T07:48:20;5.30;99.90
324;DHT22;149;51.094;17.002;2023-04-03T07:50:47;4.40;99.90
324;DHT22;149;51.094;17.002;2023-04-03T07:53:15;6.10;99.90
324;DHT22;149;51.094;17.002;2023-04-03T07:55:42;8.00;99.90
324;DHT22;149;51.094;17.002;2023-04-03T07:58:10;8.80;99.90
324;DHT22;149;51.094;17.002;2023-04-03T08:00:38;8.40;99.90
324;DHT22;149;51.094;17.002;2023-04-03T08:03:07;7.20;99.90
324;DHT22;149;51.094;17.002;2023-04-03T08:05:41;8.40;99.90
324;DHT22;149;51.094;17.002;2023-04-03T08:08:12;7.80;99.90
324;DHT22;149;51.094;17.002;2023-04-03T08:10:40;8.20;99.90
324;DHT22;149;51.094;17.002;2023-04-03T08:13:07;9.30;99.90
324;DHT22;149;51.094;17.002;2023-04-03T08:15:35;9.50;99.90
324;DHT22;149;51.094;17.002;2023-04-03T08:18:03;9.10;99.90
324;DHT22;149;51.094;17.002;2023-04-03T08:20:31;8.50;99.90
324;DHT22;149;51.094;17.002;2023-04-03T08:22:58;8.10;99.90
324;DHT22;149;51.094;17.002;2023-04-03T08:25:25;8.30;99.90
324;DHT22;149;51.094;17.002;2023-04-03T08:27:53;8.50;99.90
324;DHT22;149;51.094;17.002;2023-04-03T08:30:20;8.80;99.90
324;DHT22;149;51.094;17.002;2023-04-03T08:32:47;8.70;99.90
324;DHT22;149;51.094;17.002;2023-04-03T08:35:14;9.30;99.90
324;DHT22;149;51.094;17.002;2023-04-03T08:37:41;9.20;99.90
324;DHT22;149;51.094;17.002;2023-04-03T08:40:13;9.70;99.90
324;DHT22;149;51.094;17.002;2023-04-03T08:42:59;10.70;99.90
324;DHT22;149;51.094;17.002;2023-04-03T08:45:47;10.80;99.90
324;DHT22;149;51.094;17.002;2023-04-03T08:48:30;10.00;99.90
324;DHT22;149;51.094;17.002;2023-04-03T08:51:02;8.40;99.90
324;DHT22;149;51.094;17.002;2023-04-03T08:53:40;7.80;99.90
324;DHT22;149;51.094;17.002;2023-04-03T08:56:10;7.30;99.90
324;DHT22;149;51.094;17.002;2023-04-03T08:58:50;7.80;99.90
324;DHT22;149;51.094;17.002;2023-04-03T09:01:24;7.20;99.90
324;DHT22;149;51.094;17.002;2023-04-03T09:03:52;7.70;99.90
324;DHT22;149;51.094;17.002;2023-04-03T09:06:25;6.80;99.90
324;DHT22;149;51.094;17.002;2023-04-03T09:14:26;8.20;99.90
324;DHT22;149;51.094;17.002;2023-04-03T09:17:00;8.70;99.90
324;DHT22;149;51.094;17.002;2023-04-03T09:22:17;9.50;99.90
324;DHT22;149;51.094;17.002;2023-04-03T09:24:48;9.10;99.90
324;DHT22;149;51.094;17.002;2023-04-03T09:27:16;7.30;99.90
324;DHT22;149;51.094;17.002;2023-04-03T09:29:44;6.60;99.90
324;DHT22;149;51.094;17.002;2023-04-03T09:34:55;5.30;99.90
324;DHT22;149;51.094;17.002;2023-04-03T09:40:11;7.10;99.90
324;DHT22;149;51.094;17.002;2023-04-03T09:42:54;7.00;99.90
324;DHT22;149;51.094;17.002;2023-04-03T09:45:35;6.80;99.90
324;DHT22;149;51.094;17.002;2023-04-03T09:53:43;7.50;99.90
324;DHT22;149;51.094;17.002;2023-04-03T09:58:40;6.70;99.90
324;DHT22;149;51.094;17.002;2023-04-03T10:01:38;6.50;99.90
324;DHT22;149;51.094;17.002;2023-04-03T10:06:36;6.30;99.90
324;DHT22;149;51.094;17.002;2023-04-03T10:09:06;6.70;99.90
324;DHT22;149;51.094;17.002;2023-04-03T10:12:10;6.50;99.90
324;DHT22;149;51.094;17.002;2023-04-03T10:17:32;6.40;99.90
324;DHT22;149;51.094;17.002;2023-04-03T10:20:22;6.10;99.90
324;DHT22;149;51.094;17.002;2023-04-03T10:47:53;5.80;99.90
324;DHT22;149;51.094;17.002;2023-04-03T10:59:19;6.40;99.90
324;DHT22;149;51.094;17.002;2023-04-03T11:01:51;6.70;99.90
324;DHT22;149;51.094;17.002;2023-04-03T11:04:20;6.40;99.90
324;DHT22;149;51.094;17.002;2023-04-03T11:07:12;6.00;99.90
324;DHT22;149;51.094;17.002;2023-04-03T11:09:43;5.80;99.90
324;DHT22;149;51.094;17.002;2023-04-03T11:15:02;6.30;99.90
324;DHT22;149;51.094;17.002;2023-04-03T11:17:35;6.10;99.90
324;DHT22;149;51.094;17.002;2023-04-03T11:20:17;5.90;99.90
324;DHT22;149;51.094;17.002;2023-04-03T11:22:56;5.90;99.90
324;DHT22;149;51.094;17.002;2023-04-03T11:25:26;5.50;99.90
324;DHT22;149;51.094;17.002;2023-04-03T11:28:02;5.40;99.90
324;DHT22;149;51.094;17.002;2023-04-03T11:31:03;5.60;99.90
324;DHT22;149;51.094;17.002;2023-04-03T11:33:51;6.10;99.90
324;DHT22;149;51.094;17.002;2023-04-03T11:36:32;6.30;99.90
324;DHT22;149;51.094;17.002;2023-04-03T11:39:24;6.10;99.90
324;DHT22;149;51.094;17.002;2023-04-03T11:41:51;5.70;99.90
324;DHT22;149;51.094;17.002;2023-04-03T11:44:35;5.90;99.90
324;DHT22;149;51.094;17.002;2023-04-03T11:47:09;6.20;99.90
324;DHT22;149;51.094;17.002;2023-04-03T11:50:05;6.40;99.90
324;DHT22;149;51.094;17.002;2023-04-03T12:00:46;5.80;99.90
324;DHT22;149;51.094;17.002;2023-04-03T12:08:43;6.40;99.90
324;DHT22;149;51.094;17.002;2023-04-03T12:22:12;5.50;99.90
324;DHT22;149;51.094;17.002;2023-04-03T12:24:41;6.20;99.90
324;DHT22;149;51.094;17.002;2023-04-03T12:27:23;6.50;99.90
324;DHT22;149;51.094;17.002;2023-04-03T12:30:23;6.40;99.90
324;DHT22;149;51.094;17.002;2023-04-03T12:35:57;5.80;99.90
324;DHT22;149;51.094;17.002;2023-04-03T12:46:42;6.10;99.90
324;DHT22;149;51.094;17.002;2023-04-03T12:51:56;5.90;99.90
324;DHT22;149;51.094;17.002;2023-04-03T12:54:32;5.80;99.90
324;DHT22;149;51.094;17.002;2023-04-03T12:57:29;5.80;99.90
324;DHT22;149;51.094;17.002;2023-04-03T12:59:57;6.10;99.90
324;DHT22;149;51.094;17.002;2023-04-03T13:02:31;6.20;99.90
324;DHT22;149;51.094;17.002;2023-04-03T13:05:07;6.30;99.90
324;DHT22;149;51.094;17.002;2023-04-03T13:07:37;5.90;99.90
324;DHT22;149;51.094;17.002;2023-04-03T13:12:57;5.50;99.90
324;DHT22;149;51.094;17.002;2023-04-03T13:15:40;5.40;99.90
324;DHT22;149;51.094;17.002;2023-04-03T13:18:30;5.60;99.90
324;DHT22;149;51.094;17.002;2023-04-03T13:21:07;5.90;99.90
324;DHT22;149;51.094;17.002;2023-04-03T13:23:40;6.00;99.90
324;DHT22;149;51.094;17.002;2023-04-03T13:26:10;6.10;99.90
324;DHT22;149;51.094;17.002;2023-04-03T13:28:39;6.10;99.90
324;DHT22;149;51.094;17.002;2023-04-03T13:34:02;6.10;99.90
324;DHT22;149;51.094;17.002;2023-04-03T13:36:36;6.20;99.90
324;DHT22;149;51.094;17.002;2023-04-03T13:39:17;6.20;99.90
324;DHT22;149;51.094;17.002;2023-04-03T13:41:55;6.10;99.90
324;DHT22;149;51.094;17.002;2023-04-03T13:44:31;6.00;99.90
324;DHT22;149;51.094;17.002;2023-04-03T13:49:38;6.20;99.90
324;DHT22;149;51.094;17.002;2023-04-03T13:54:46;6.80;99.90
324;DHT22;149;51.094;17.002;2023-04-03T13:57:15;6.60;99.90
324;DHT22;149;51.094;17.002;2023-04-03T13:59:45;6.50;99.90
324;DHT22;149;51.094;17.002;2023-04-03T14:02:15;6.10;99.90
324;DHT22;149;51.094;17.002;2023-04-03T14:07:10;6.30;99.90
324;DHT22;149;51.094;17.002;2023-04-03T14:09:37;6.50;99.90
324;DHT22;149;51.094;17.002;2023-04-03T14:12:29;6.40;99.90
324;DHT22;149;51.094;17.002;2023-04-03T14:15:02;6.30;99.90
324;DHT22;149;51.094;17.002;2023-04-03T14:17:29;5.80;99.90
324;DHT22;149;51.094;17.002;2023-04-03T14:19:57;5.80;99.90
324;DHT22;149;51.094;17.002;2023-04-03T14:22:27;6.10;99.90
324;DHT22;149;51.094;17.002;2023-04-03T14:24:56;6.20;99.90
324;DHT22;149;51.094;17.002;2023-04-03T14:27:33;6.00;99.90
324;DHT22;149;51.094;17.002;2023-04-03T14:30:00;5.90;99.90
324;DHT22;149;51.094;17.002;2023-04-03T14:32:27;5.60;99.90
324;DHT22;149;51.094;17.002;2023-04-03T14:34:55;5.60;99.90
324;DHT22;149;51.094;17.002;2023-04-03T14:37:26;5.70;99.90
324;DHT22;149;51.094;17.002;2023-04-03T14:39:55;5.80;99.90
324;DHT22;149;51.094;17.002;2023-04-03T14:42:34;6.00;99.90
324;DHT22;149;51.094;17.002;2023-04-03T14:45:04;6.00;99.90
324;DHT22;149;51.094;17.002;2023-04-03T14:47:32;6.00;99.90
324;DHT22;149;51.094;17.002;2023-04-03T14:50:00;6.30;99.90
324;DHT22;149;51.094;17.002;2023-04-03T14:52:34;6.40;99.90
324;DHT22;149;51.094;17.002;2023-04-03T14:55:03;6.30;99.90
324;DHT22;149;51.094;17.002;2023-04-03T14:57:31;6.20;99.90
324;DHT22;149;51.094;17.002;2023-04-03T14:59:58;6.00;99.90
324;DHT22;149;51.094;17.002;2023-04-03T15:02:44;5.80;99.90
324;DHT22;149;51.094;17.002;2023-04-03T15:05:12;5.80;99.90
324;DHT22;149;51.094;17.002;2023-04-03T15:07:59;5.90;99.90
324;DHT22;149;51.094;17.002;2023-04-03T15:10:29;5.80;99.90
324;DHT22;149;51.094;17.002;2023-04-03T15:12:56;5.80;99.90
324;DHT22;149;51.094;17.002;2023-04-03T15:15:24;5.70;99.90
324;DHT22;149;51.094;17.002;2023-04-03T15:17:55;5.60;99.90
324;DHT22;149;51.094;17.002;2023-04-03T15:20:26;5.60;99.90
324;DHT22;149;51.094;17.002;2023-04-03T15:22:54;5.70;99.90
324;DHT22;149;51.094;17.002;2023-04-03T15:25:24;5.70;99.90
324;DHT22;149;51.094;17.002;2023-04-03T15:27:56;5.60;99.90
324;DHT22;149;51.094;17.002;2023-04-03T15:30:23;5.50;99.90
324;DHT22;149;51.094;17.002;2023-04-03T15:32:50;5.40;99.90
324;DHT22;149;51.094;17.002;2023-04-03T15:35:18;5.40;99.90
324;DHT22;149;51.094;17.002;2023-04-03T15:37:45;5.30;99.90
324;DHT22;149;51.094;17.002;2023-04-03T15:40:13;5.20;99.90
324;DHT22;149;51.094;17.002;2023-04-03T15:42:40;5.30;99.90
324;DHT22;149;51.094;17.002;2023-04-03T15:45:08;5.40;99.90
324;DHT22;149;51.094;17.002;2023-04-03T15:47:36;5.30;99.90
324;DHT22;149;51.094;17.002;2023-04-03T15:50:04;5.40;99.90
324;DHT22;149;51.094;17.002;2023-04-03T15:52:33;5.40;99.90
324;DHT22;149;51.094;17.002;2023-04-03T15:55:01;5.30;99.90
324;DHT22;149;51.094;17.002;2023-04-03T15:57:28;5.30;99.90
324;DHT22;149;51.094;17.002;2023-04-03T15:59:55;5.30;99.90
324;DHT22;149;51.094;17.002;2023-04-03T16:02:23;5.20;99.90
324;DHT22;149;51.094;17.002;2023-04-03T16:04:49;5.30;99.90
324;DHT22;149;51.094;17.002;2023-04-03T16:07:16;5.30;99.90
324;DHT22;149;51.094;17.002;2023-04-03T16:09:43;5.20;99.90
324;DHT22;149;51.094;17.002;2023-04-03T16:12:10;5.10;99.90
324;DHT22;149;51.094;17.002;2023-04-03T16:14:36;5.00;99.90
324;DHT22;149;51.094;17.002;2023-04-03T16:17:03;5.00;99.90
324;DHT22;149;51.094;17.002;2023-04-03T16:19:30;4.90;99.90
324;DHT22;149;51.094;17.002;2023-04-03T16:21:58;5.00;99.90
324;DHT22;149;51.094;17.002;2023-04-03T16:24:25;4.90;99.90
324;DHT22;149;51.094;17.002;2023-04-03T16:26:52;4.80;99.90
324;DHT22;149;51.094;17.002;2023-04-03T16:29:20;4.80;99.90
324;DHT22;149;51.094;17.002;2023-04-03T16:31:47;4.70;99.90
324;DHT22;149;51.094;17.002;2023-04-03T16:34:14;4.80;99.90
324;DHT22;149;51.094;17.002;2023-04-03T16:36:41;4.70;99.90
324;DHT22;149;51.094;17.002;2023-04-03T16:39:09;4.70;99.90
324;DHT22;149;51.094;17.002;2023-04-03T16:41:38;4.70;99.90
324;DHT22;149;51.094;17.002;2023-04-03T16:44:05;4.70;99.90
324;DHT22;149;51.094;17.002;2023-04-03T16:46:34;4.70;99.90
324;DHT22;149;51.094;17.002;2023-04-03T16:49:01;4.70;99.90
324;DHT22;149;51.094;17.002;2023-04-03T16:51:30;4.70;99.90
324;DHT22;149;51.094;17.002;2023-04-03T16:53:59;4.60;99.90
324;DHT22;149;51.094;17.002;2023-04-03T16:56:26;4.60;99.90
324;DHT22;149;51.094;17.002;2023-04-03T16:58:53;4.60;99.90
324;DHT22;149;51.094;17.002;2023-04-03T17:01:22;4.50;99.90
324;DHT22;149;51.094;17.002;2023-04-03T17:03:49;4.50;99.90
324;DHT22;149;51.094;17.002;2023-04-03T17:06:19;4.40;99.90
324;DHT22;149;51.094;17.002;2023-04-03T17:08:48;4.40;99.90
324;DHT22;149;51.094;17.002;2023-04-03T17:11:15;4.40;99.90
324;DHT22;149;51.094;17.002;2023-04-03T17:13:42;4.30;99.90
324;DHT22;149;51.094;17.002;2023-04-03T17:16:13;4.30;99.90
324;DHT22;149;51.094;17.002;2023-04-03T17:18:41;4.30;99.90
324;DHT22;149;51.094;17.002;2023-04-03T17:21:09;4.30;99.90
324;DHT22;149;51.094;17.002;2023-04-03T17:23:36;4.30;99.90
324;DHT22;149;51.094;17.002;2023-04-03T17:26:04;4.20;99.90
324;DHT22;149;51.094;17.002;2023-04-03T17:28:31;4.20;99.90
324;DHT22;149;51.094;17.002;2023-04-03T17:31:00;4.20;99.90
324;DHT22;149;51.094;17.002;2023-04-03T17:33:28;4.20;99.90
324;DHT22;149;51.094;17.002;2023-04-03T17:35:58;4.20;99.90
324;DHT22;149;51.094;17.002;2023-04-03T17:38:25;4.20;99.90
324;DHT22;149;51.094;17.002;2023-04-03T17:40:56;4.10;99.90
324;DHT22;149;51.094;17.002;2023-04-03T17:43:24;4.10;99.90
324;DHT22;149;51.094;17.002;2023-04-03T17:45:52;4.00;99.90
324;DHT22;149;51.094;17.002;2023-04-03T17:48:23;4.10;99.90
324;DHT22;149;51.094;17.002;2023-04-03T17:50:52;4.00;99.90
324;DHT22;149;51.094;17.002;2023-04-03T17:53:19;3.90;99.90
324;DHT22;149;51.094;17.002;2023-04-03T17:55:46;4.00;99.90
324;DHT22;149;51.094;17.002;2023-04-03T17:58:13;4.10;99.90
324;DHT22;149;51.094;17.002;2023-04-03T18:00:42;4.10;99.90
324;DHT22;149;51.094;17.002;2023-04-03T18:03:09;4.10;99.90
324;DHT22;149;51.094;17.002;2023-04-03T18:05:36;4.10;99.90
324;DHT22;149;51.094;17.002;2023-04-03T18:08:08;4.10;99.90
324;DHT22;149;51.094;17.002;2023-04-03T18:10:36;4.00;99.90
324;DHT22;149;51.094;17.002;2023-04-03T18:13:06;3.90;99.90
324;DHT22;149;51.094;17.002;2023-04-03T18:15:33;3.90;99.90
324;DHT22;149;51.094;17.002;2023-04-03T18:18:00;3.90;99.90
324;DHT22;149;51.094;17.002;2023-04-03T18:20:27;3.90;99.90
324;DHT22;149;51.094;17.002;2023-04-03T18:22:54;3.90;99.90
324;DHT22;149;51.094;17.002;2023-04-03T18:25:21;3.90;99.90
324;DHT22;149;51.094;17.002;2023-04-03T18:27:49;3.90;99.90
324;DHT22;149;51.094;17.002;2023-04-03T18:30:17;4.00;99.90
324;DHT22;149;51.094;17.002;2023-04-03T18:32:45;4.00;99.90
324;DHT22;149;51.094;17.002;2023-04-03T18:35:16;4.00;99.90
324;DHT22;149;51.094;17.002;2023-04-03T18:37:46;3.90;99.90
324;DHT22;149;51.094;17.002;2023-04-03T18:40:13;3.90;99.90
324;DHT22;149;51.094;17.002;2023-04-03T18:42:40;3.80;99.90
324;DHT22;149;51.094;17.002;2023-04-03T18:45:10;3.80;99.90
324;DHT22;149;51.094;17.002;2023-04-03T18:47:37;3.80;99.90